Highest pressure

Not for real navigation. The accuracy of this data is not assured See disclaimer for more information



ICAO NAME COUNTRY WIND Kt GUST Kt VIS m TEMP/DEW C BARO METAR
KQZF 0 0 11200 32/4 30.91 KQZF 181655Z AUTO 00000KT 7SM BKN022 BKN170 32/04 A3091 RMK AO2 SLP425 WND DATA ESTMD T03170035 $
CYCY Clyde, N. W. T. Canada 0 0 32767 -27/-30 30.65 CYCY 181700Z 00000KT 25SM SCT250 M27/M30 A3065 RMK CI4 SLP384
CYVM Broughton Island Airport Canada 3 0 9999 -20/-25 30.65 CYVM 181700Z 14003KT 15SM CAVOK M20/M25 A3065 RMK SLP381
CWEU Eureka, N. W. T. Canada 3 0 24000 -32/-36 30.64 CWEU 181700Z 07003KT 15SM FEW150 M32/M36 A3064 RMK AC1 SLP381
BGTL Thule A. B. Greenland 0 0 6000 -15/-17 30.63 BGTL 181658Z AUTO 00000KT 6000 BR OVC002 M15/M17 A3063 RMK AO2 VIS 2400 RWY26 SNE02 SLP362 P0000 T11

Show more